ADDS METAR Data INFO
IDs: Format: Raw Decoded Include TAF

Data at: 1250 UTC 19 Oct 2017

PAJZ 191156Z AUTO 32005KT 8SM BKN045 OVC055 M03/M05 A2956 RMK AO2 SLP018 T10281050 11017 21050 53003 FZRANO $
PAJZ 191056Z AUTO 30006KT 8SM SCT050 M04/M06 A2956 RMK AO2 SLP015 T10391061 FZRANO $
PAJZ 190956Z AUTO 29007KT 8SM CLR M04/M06 A2956 RMK AO2 SLP015 T10391061 FZRANO $
PAJZ 190856Z AUTO 28007KT 8SM CLR M04/M07 A2955 RMK AO2 SLP015 T10441067 53003 FZRANO $
PAJZ 190756Z AUTO 30006KT 8SM BKN095 M03/M06 A2955 RMK AO2 SLP013 T10281056 400331033 FZRANO $
PAJZ 190656Z AUTO 31007KT 8SM OVC095 M02/M06 A2955 RMK AO2 SLP013 T10171056 FZRANO $
PAJZ 190556Z AUTO 33007KT 8SM SCT100 M02/M06 A2955 RMK AO2 SLP012 T10221056 10028 21028 51011 FZRANO $
PAJZ 190456Z AUTO 33008KT 8SM CLR M02/M06 A2954 RMK AO2 SLP010 T10221056 FZRANO $
PAJZ 190356Z AUTO 32012KT 8SM CLR M01/M04 A2953 RMK AO2 SLP006 T10111044 FZRANO $
PAJZ 190256Z AUTO 33013KT 7SM FEW038 01/M05 A2951 RMK AO2 SLP001 T00111050 53000 FZRANO $
PAJZ 190156Z AUTO 35013KT 6SM HZ BKN060 OVC090 02/M06 A2950 RMK AO2 SLP997 T00221056 FZRANO $
PAJZ 190056Z AUTO 32016G21KT 7SM OVC090 03/M07 A2950 RMK AO2 SLP996 T00281072 $
PAJZ 182356Z AUTO 33016G21KT 6SM HZ FEW055 03/M07 A2951 RMK AO2 SLP002 60000 T00281067 10033 21011 58007 $
PAJZ 182156Z AUTO 34015G19KT 7SM SCT045 BKN055 03/M06 A2953 RMK AO2 SLP005 T00281061 $
PAJZ 182056Z AUTO 33011KT 7SM BKN050 03/M04 A2953 RMK AO2 RAB00E15 SLP009 P0000 60000 T00281039 51006 $
PAJZ 181956Z AUTO 32009KT 7SM OVC050 01/M03 A2953 RMK AO2 SLP007 T00111028 FZRANO $
PAJZ 181856Z AUTO 32004KT 7SM OVC050 M01/M03 A2953 RMK AO2 SLP005 T10061033 FZRANO $
PAJZ 181756Z AUTO 29008KT 7SM OVC055 M01/M04 A2952 RMK AO2 SLP002 T10111039 11011 21033 52001 FZRANO $
PAJZ 181656Z AUTO 31004KT 8SM OVC055 M02/M04 A2951 RMK AO2 SLP002 T10221044 FZRANO $
PAJZ 181556Z AUTO 31005KT 8SM OVC055 M03/M04 A2952 RMK AO2 SLP002 T10281044 FZRANO $
PAJZ 181456Z AUTO 33007KT 8SM SCT050 M03/M05 A2951 RMK AO2 SLP001 T10281050 57001 FZRANO $
PAJZ 181356Z AUTO 33006KT 8SM CLR M02/M05 A2952 RMK AO2 SLP001 T10221050 FZRANO $
PAJZ 181256Z AUTO 32007KT 8SM OVC032 M03/M05 A2951 RMK AO2 SLP001 T10281050 FZRANO $
PAJZ 181156Z AUTO 33007KT 8SM OVC032 M02/M05 A2952 RMK AO2 SLP001 T10171050 11011 21033 52001 FZRANO $
PAJZ 181056Z AUTO 31006KT 8SM CLR M03/M06 A2952 RMK AO2 SLP002 T10281056 FZRANO $
PAJZ 180956Z AUTO 33008KT 8SM CLR M03/M05 A2951 RMK AO2 SLP001 T10281050 FZRANO $
PAJZ 180856Z AUTO 33009KT 8SM CLR M02/M06 A2951 RMK AO2 SLP001 T10221056 51014 FZRANO $
PAJZ 180756Z AUTO 34006KT 8SM CLR M02/M05 A2951 RMK AO2 SLP999 T10171050 400171022 FZRANO $
PAJZ 180656Z AUTO 34008KT 8SM CLR M02/M05 A2948 RMK AO2 SLP991 T10171050 FZRANO $
PAJZ 180556Z AUTO 35010KT 8SM CLR M01/M05 A2947 RMK AO2 SLP987 T10111050 10017 21011 51017 FZRANO $
PAJZ 180456Z AUTO 32008KT 8SM SCT044 M01/M05 A2946 RMK AO2 SLP982 T10111050 FZRANO $
PAJZ 180356Z AUTO 33005KT 8SM OVC042 00/M05 A2944 RMK AO2 SLP976 T00001050 FZRANO $
PAJZ 180256Z AUTO 35005KT 7SM SCT040 OVC049 01/M06 A2942 RMK AO2 SLP970 T00061056 53007 FZRANO $
PAJZ 180156Z AUTO 01010KT 7SM OVC041 02/M05 A2941 RMK AO2 SLP966 T00171050 FZRANO $
PAJZ 180056Z AUTO 01013KT 7SM FEW036 OVC048 02/M05 A2940 RMK AO2 SLP964 T00171050 FZRANO $